Time;durP1;ratioP1;P1;durP2;ratioP2;P2;SDS_P1;SDS_P2;PMS_P1;PMS_P2;Temp;Humidity;BMP_temperature;BMP_pressure;BME280_temperature;BME280_humidity;BME280_pressure;Samples;Min_cycle;Max_cycle;Signal;HPM_P1;HPM_P2
2023/10/18 04:09:54;;;;;;;;;70.50;50.25;;;;;-143.90;100.00;76756.16;3944430;28;103496;-77
2023/10/18 04:12:22;;;;;;;;;77.00;55.25;;;;;-143.90;100.00;76749.97;4945574;28;103682;-76
2023/10/18 04:14:53;;;;;;;;;70.67;54.67;;;;;-143.90;100.00;76747.88;4948075;28;102868;-76
2023/10/18 04:22:49;;;;;;;;;60.67;48.67;;;;;-143.90;100.00;76752.03;4947903;28;105525;-77
2023/10/18 04:25:30;;;;;;;;;63.00;49.67;;;;;-143.90;100.00;76737.53;4950382;28;102338;-76
2023/10/18 04:27:58;;;;;;;;;56.00;42.67;;;;;-143.90;100.00;76731.34;4950404;28;102763;-76
2023/10/18 04:30:29;;;;;;;;;42.67;29.00;;;;;-143.90;100.00;76723.06;4939677;28;101883;-76
2023/10/18 04:33:00;;;;;;;;;35.00;31.33;;;;;-143.90;100.00;76729.28;4949358;28;103561;-77
2023/10/18 04:35:33;;;;;;;;;57.00;44.67;;;;;-143.90;100.00;76729.28;4955037;28;101973;-76
2023/10/18 04:38:03;;;;;;;;;56.00;44.00;;;;;-143.90;100.00;76735.47;4952368;28;101902;-77
2023/10/18 04:40:34;;;;;;;;;49.33;41.00;;;;;-143.90;100.00;76743.75;4949152;28;101940;-77
2023/10/18 04:43:01;;;;;;;;;47.67;41.33;;;;;-143.90;100.00;76752.03;4951484;28;103455;-77
2023/10/18 04:45:29;;;;;;;;;49.33;42.67;;;;;-143.90;100.00;76756.16;4941879;28;101961;-76
2023/10/18 04:48:06;;;;;;;;;84.50;61.25;;;;;-143.90;100.00;76774.78;4957312;28;102095;-78
2023/10/18 04:50:39;;;;;;;;;64.67;49.33;;;;;-143.90;100.00;76768.56;4950659;28;101944;-78
2023/10/18 04:53:14;;;;;;;;;72.00;50.33;;;;;-143.90;100.00;76768.56;4936054;28;107817;-78
2023/10/18 04:55:41;;;;;;;;;93.75;68.25;;;;;-143.90;100.00;76814.06;4952420;28;102066;-76
2023/10/18 04:58:10;;;;;;;;;83.25;62.75;;;;;-143.90;100.00;76805.78;4958980;28;101964;-78
2023/10/18 05:00:52;;;;;;;;;69.33;49.00;;;;;-143.90;100.00;76809.94;4958433;28;102150;-78
2023/10/18 05:03:19;;;;;;;;;80.75;59.50;;;;;-143.90;100.00;76828.53;4951380;28;107893;-78
2023/10/18 05:05:45;;;;;;;;;62.00;50.33;;;;;-143.90;100.00;76822.34;4951190;28;102141;-76
2023/10/18 05:08:16;;;;;;;;;56.67;43.00;;;;;-143.90;100.00;76801.66;4952988;28;101782;-76
2023/10/18 05:10:46;;;;;;;;;54.67;45.00;;;;;-143.90;100.00;76799.59;4959316;28;101786;-76
2023/10/18 05:16:04;;;;;;;;;44.00;32.00;;;;;-143.90;100.00;76789.25;4972832;28;102455;-76
2023/10/18 05:18:31;;;;;;;;;60.00;45.33;;;;;-143.90;100.00;76797.53;4973317;28;101940;-77
2023/10/18 05:20:58;;;;;;;;;63.33;46.00;;;;;-143.90;100.00;76814.06;4981032;28;101607;-77
2023/10/18 05:23:32;;;;;;;;;69.00;50.33;;;;;-143.90;100.00;76812.00;4974892;28;103519;-77
2023/10/18 05:28:48;;;;;;;;;69.50;51.00;;;;;-143.90;100.00;76822.34;4976013;28;104038;-75
2023/10/18 05:31:48;;;;;;;;;74.75;55.50;;;;;-143.90;100.00;76836.81;4969860;28;101928;-76
2023/10/18 05:41:52;;;;;;;;;42.33;35.67;;;;;-143.90;100.00;76785.13;4974436;28;101572;-77
2023/10/18 05:44:20;;;;;;;;;38.00;33.00;;;;;-143.90;100.00;76783.03;4976012;28;103836;-76
2023/10/18 05:46:50;;;;;;;;;36.67;26.33;;;;;-143.90;100.00;76780.97;4971687;28;102264;-76
2023/10/18 05:49:23;;;;;;;;;54.00;42.33;;;;;-143.90;100.00;76791.31;4958660;28;101830;-76
2023/10/18 05:52:15;;;;;;;;;57.67;42.00;;;;;-143.90;100.00;76791.31;4972318;28;101621;-77
2023/10/18 05:54:43;;;;;;;;;59.33;43.33;;;;;-143.90;100.00;76793.38;4971256;28;108365;-75
2023/10/18 05:57:15;;;;;;;;;73.25;51.00;;;;;-143.90;100.00;76801.66;4974403;28;101995;-77
2023/10/18 05:59:46;;;;;;;;;51.00;44.33;;;;;-143.90;100.00;76801.66;4973551;28;101600;-76
2023/10/18 06:02:25;;;;;;;;;52.33;42.00;;;;;-143.90;100.00;76791.31;4973485;28;102020;-76
2023/10/18 06:04:55;;;;;;;;;24.33;13.67;;;;;-143.90;100.00;76807.88;4972992;28;105447;-77
2023/10/18 06:07:26;;;;;;;;;64.00;50.67;;;;;-143.90;100.00;76803.72;4975439;28;102331;-78
2023/10/18 06:09:57;;;;;;;;;72.25;52.75;;;;;-143.90;100.00;76807.88;4970068;28;101918;-76
2023/10/18 06:12:27;;;;;;;;;70.25;52.00;;;;;-143.90;100.00;76807.88;4977663;28;102307;-76
2023/10/18 06:14:57;;;;;;;;;64.00;50.00;;;;;-143.90;100.00;76805.78;4970713;28;103491;-77
2023/10/18 06:17:43;;;;;;;;;63.33;50.67;;;;;-143.90;100.00;76797.53;4959653;28;102066;-77
2023/10/18 06:20:26;;;;;;;;;61.00;46.50;;;;;-143.90;100.00;76776.84;4949590;28;101937;-78
2023/10/18 06:23:09;;;;;;;;;51.00;41.33;;;;;-143.90;100.00;76756.16;4958267;28;101926;-78
2023/10/18 06:25:41;;;;;;;;;42.67;38.00;;;;;-143.90;100.00;76735.47;4972410;28;108673;-78
2023/10/18 06:28:11;;;;;;;;;52.00;44.67;;;;;-143.90;100.00;76731.34;4974412;28;101895;-75
2023/10/18 06:30:41;;;;;;;;;42.00;37.67;;;;;-143.90;100.00;76718.94;4976085;28;102046;-78
2023/10/18 06:33:12;;;;;;;;;42.67;38.67;;;;;-143.90;100.00;76721.00;4960570;28;102271;-79
2023/10/18 06:35:51;;;;;;;;;92.00;66.75;;;;;-143.90;100.00;76727.22;4972313;28;107725;-79
2023/10/18 06:38:25;;;;;;;;;67.50;53.50;;;;;-143.90;100.00;76706.53;4970740;28;102558;-77
2023/10/18 06:40:53;;;;;;;;;72.00;54.67;;;;;-143.90;100.00;76710.66;4975406;28;101806;-78
2023/10/18 06:43:32;;;;;;;;;63.00;44.67;;;;;-143.90;100.00;76694.13;4977861;28;101825;-77
2023/10/18 06:45:59;;;;;;;;;75.00;56.25;;;;;-143.90;100.00;76681.72;4956863;28;103399;-79
2023/10/18 06:48:28;;;;;;;;;56.67;46.00;;;;;-143.90;100.00;76665.16;4970387;28;101883;-77
2023/10/18 06:50:55;;;;;;;;;65.33;49.00;;;;;-143.90;100.00;76654.81;4978137;28;101978;-78
2023/10/18 06:53:22;;;;;;;;;49.00;42.67;;;;;-143.90;100.00;76642.41;4966748;28;101947;-78
2023/10/18 06:56:07;;;;;;;;;69.50;55.50;;;;;-143.90;100.00;76644.47;4971538;28;103462;-77
2023/10/18 07:01:30;;;;;;;;;80.33;58.00;;;;;-143.90;100.00;76613.47;4980259;28;101881;-78
2023/10/18 07:03:54;;;;;;;;;56.00;44.33;;;;;-143.90;100.00;76603.13;4974560;28;102067;-78
2023/10/18 07:06:24;;;;;;;;;61.33;45.00;;;;;-143.90;100.00;76592.78;4958212;28;103513;-77
2023/10/18 07:08:51;;;;;;;;;57.33;44.00;;;;;-143.90;100.00;76574.16;4977786;28;102147;-77
2023/10/18 07:11:19;;;;;;;;;45.00;40.00;;;;;-143.90;100.00;76565.88;4979204;28;101872;-77
2023/10/18 07:14:00;;;;;;;;;64.00;44.00;;;;;-143.90;100.00;76545.22;4976629;28;102026;-76
2023/10/18 07:21:46;;;;;;;;;43.00;34.33;;;;;-143.90;100.00;76472.81;4969341;28;104557;-77
2023/10/18 07:24:13;;;;;;;;;44.33;37.33;;;;;-143.90;100.00;76441.81;4975930;28;101632;-76
2023/10/18 07:26:40;;;;;;;;;48.33;42.33;;;;;-143.90;100.00;76427.31;4973549;28;103464;-77
2023/10/18 07:29:07;;;;;;;;;34.33;28.67;;;;;-143.90;100.00;76404.56;4978255;28;102262;-76
2023/10/18 07:31:38;;;;;;;;;39.00;33.00;;;;;-143.90;100.00;76383.91;4957529;28;101911;-78
2023/10/18 07:34:08;;;;;;;;;32.33;26.33;;;;;-143.90;100.00;76357.00;4975895;28;101883;-76
2023/10/18 07:36:39;;;;;;;;;30.00;23.33;;;;;-143.90;100.00;76326.00;4958738;28;111671;-76
2023/10/18 07:39:06;;;;;;;;;38.33;34.00;;;;;-143.90;100.00;76321.84;4978456;28;101614;-77
2023/10/18 07:41:36;;;;;;;;;32.33;29.67;;;;;-143.90;100.00;76299.09;4958930;28;101945;-76
2023/10/18 07:44:06;;;;;;;;;29.75;24.50;;;;;-143.90;100.00;76268.09;4977556;28;102738;-77
2023/10/18 07:46:34;;;;;;;;;28.75;23.50;;;;;-143.90;100.00;76245.34;4978527;28;103441;-76
2023/10/18 07:49:04;;;;;;;;;25.75;23.25;;;;;-143.90;100.00;76220.53;4976539;28;101690;-77
2023/10/18 07:51:31;;;;;;;;;27.25;27.00;;;;;-143.90;100.00;76199.84;4980548;28;101786;-76
2023/10/18 07:53:59;;;;;;;;;28.50;20.50;;;;;-143.90;100.00;76181.25;4974561;28;102258;-76
2023/10/18 07:56:32;;;;;;;;;26.75;16.50;;;;;-143.90;100.00;76156.41;4978365;28;103561;-76
2023/10/18 08:04:31;;;;;;;;;14.50;11.75;;;;;-143.90;100.00;76086.13;4961416;28;101564;-76
2023/10/18 08:07:00;;;;;;;;;24.50;19.00;;;;;-143.90;100.00;76065.44;4977462;28;103382;-77
2023/10/18 08:09:30;;;;;;;;;23.75;20.75;;;;;-143.90;100.00;76040.63;4961620;28;101956;-76
2023/10/18 08:12:08;;;;;;;;;25.25;21.50;;;;;-143.90;100.00;76032.34;4922759;28;1497171;-77
2023/10/18 08:14:35;;;;;;;;;29.00;23.25;;;;;-143.90;100.00;76011.66;4976726;28;101625;-77
2023/10/18 08:17:09;;;;;;;;;36.25;28.75;;;;;-143.90;100.00;76007.53;4975381;28;103534;-77
2023/10/18 08:19:47;;;;;;;;;30.75;27.25;;;;;-143.90;100.00;75980.66;4983629;28;101849;-77
2023/10/18 08:24:43;;;;;;;;;20.75;16.25;;;;;-143.90;100.00;75931.03;4982075;28;102012;-77
2023/10/18 08:27:09;;;;;;;;;29.25;23.00;;;;;-143.90;100.00;75910.34;4972881;28;108858;-77
2023/10/18 08:29:39;;;;;;;;;19.75;17.25;;;;;-143.90;100.00;75883.47;4955455;28;101745;-77
2023/10/18 08:32:15;;;;;;;;;17.25;11.75;;;;;-143.90;99.46;75875.19;4976407;28;101526;-78
2023/10/18 08:34:47;;;;;;;;;41.25;32.50;;;;;-143.90;97.79;75883.47;4974472;28;102074;-75
2023/10/18 08:37:14;;;;;;;;;37.25;32.00;;;;;-143.90;97.97;75866.94;4973173;28;108154;-77
2023/10/18 08:39:52;;;;;;;;;31.00;26.00;;;;;-143.90;96.08;75854.53;4976041;28;101621;-77
2023/10/18 08:42:24;;;;;;;;;39.25;31.25;;;;;-143.90;98.23;75819.38;4933698;28;102077;-76
2023/10/18 08:44:55;;;;;;;;;30.75;24.75;;;;;-143.90;95.52;75804.91;4975449;28;101893;-76
2023/10/18 08:47:29;;;;;;;;;33.00;31.25;;;;;-143.90;95.80;75794.56;4980533;28;103551;-76
2023/10/18 08:49:56;;;;;;;;;32.50;27.75;;;;;-143.90;96.15;75780.09;4973037;28;102073;-77
2023/10/18 08:52:32;;;;;;;;;30.25;29.75;;;;;-143.90;96.45;75767.69;4977193;28;101598;-76
2023/10/18 08:55:19;;;;;;;;;33.25;25.25;;;;;-143.90;95.43;75747.00;4972989;28;101605;-76
2023/10/18 08:57:47;;;;;;;;;30.75;24.00;;;;;-143.90;94.47;75726.31;4972544;28;107684;-76
2023/10/18 09:02:53;;;;;;;;;25.00;22.75;;;;;-143.90;93.74;75689.09;4980307;28;102007;-77
2023/10/18 09:05:25;;;;;;;;;41.50;36.25;;;;;-143.90;94.42;75701.50;4978524;28;105492;-78
2023/10/18 09:07:53;;;;;;;;;36.75;31.25;;;;;-143.90;94.18;75674.63;4975352;28;103318;-77
2023/10/18 09:16:01;;;;;;;;;42.25;32.75;;;;;-143.90;93.75;75625.00;4975367;28;102064;-78
2023/10/18 09:18:32;;;;;;;;;46.75;36.75;;;;;-143.90;90.62;75631.22;4971559;28;103371;-78
2023/10/18 09:21:07;;;;;;;;;43.00;36.50;;;;;-143.90;89.25;75618.81;4975672;28;101772;-78
2023/10/18 09:23:35;;;;;;;;;44.75;36.00;;;;;-143.90;89.76;75608.47;4955641;28;101644;-77
2023/10/18 09:26:18;;;;;;;;;41.50;36.00;;;;;-143.90;87.42;75594.00;4980766;28;103069;-77
2023/10/18 09:28:46;;;;;;;;;29.75;26.25;;;;;-143.90;85.87;75567.13;4969327;28;107788;-77
2023/10/18 09:31:19;;;;;;;;;27.50;21.25;;;;;-143.90;82.50;75548.50;4976859;28;102201;-77
2023/10/18 09:33:49;;;;;;;;;24.25;23.25;;;;;-143.90;80.57;75540.22;4971461;28;101941;-78
2023/10/18 09:36:25;;;;;;;;;23.00;19.25;;;;;-143.90;80.39;75523.69;4971302;28;101855;-77
2023/10/18 09:38:53;;;;;;;;;27.25;23.50;;;;;-143.90;78.34;75511.28;4975976;28;103524;-79
2023/10/18 09:41:21;;;;;;;;;21.00;20.00;;;;;-143.90;77.74;75486.47;4970528;28;101875;-77
2023/10/18 09:43:48;;;;;;;;;17.25;17.25;;;;;-143.90;73.65;75469.94;4975502;28;101577;-78
2023/10/18 09:46:16;;;;;;;;;15.75;14.50;;;;;-143.90;72.50;75441.00;4970078;28;102013;-77
2023/10/18 09:48:45;;;;;;;;;9.75;9.75;;;;;-143.90;66.96;75426.50;4978510;28;103395;-78
2023/10/18 09:51:15;;;;;;;;;17.00;13.00;;;;;-143.90;66.09;75428.59;4970109;28;101891;-76
2023/10/18 09:53:45;;;;;;;;;12.75;11.00;;;;;-143.90;67.27;75407.91;4975756;28;101900;-78
2023/10/18 09:56:13;;;;;;;;;15.00;10.00;;;;;-143.90;69.19;75412.03;4970481;28;103106;-76
2023/10/18 09:58:43;;;;;;;;;11.00;10.00;;;;;-143.90;69.19;75391.38;4980817;28;103591;-77
2023/10/18 10:01:55;;;;;;;;;13.25;12.00;;;;;-143.90;64.85;75393.44;4974811;28;101948;-78
2023/10/18 10:04:22;;;;;;;;;15.00;12.50;;;;;-143.90;65.00;75383.09;4972829;28;101830;-78
2023/10/18 10:06:53;;;;;;;;;15.75;15.00;;;;;-143.90;65.21;75395.50;4978657;28;102098;-77
2023/10/18 10:09:28;;;;;;;;;14.50;13.75;;;;;-143.90;64.40;75381.03;4956568;28;102573;-78
2023/10/18 10:11:58;;;;;;;;;12.75;11.25;;;;;-143.90;65.27;75345.88;4976699;28;102138;-77
2023/10/18 10:14:29;;;;;;;;;15.75;12.25;;;;;-143.90;64.27;75335.53;4975889;28;101714;-77
2023/10/18 10:17:01;;;;;;;;;11.75;11.00;;;;;-143.90;65.84;75325.22;4975732;28;101674;-77
2023/10/18 10:19:33;;;;;;;;;19.50;14.25;;;;;-143.90;63.97;75306.59;4970998;28;103413;-77
2023/10/18 10:22:05;;;;;;;;;11.50;11.00;;;;;-143.90;61.82;75300.41;4979987;28;101931;-76
2023/10/18 10:24:42;;;;;;;;;15.75;14.00;;;;;-143.90;60.49;75288.00;4971816;28;102282;-77
2023/10/18 10:27:27;;;;;;;;;10.00;9.00;;;;;-143.90;58.81;75275.59;4980680;28;101805;-79
2023/10/18 10:29:58;;;;;;;;;14.25;14.25;;;;;-143.90;60.99;75263.19;4974098;28;103643;-78
2023/10/18 10:32:27;;;;;;;;;19.50;18.25;;;;;-143.90;58.48;75304.53;4981638;28;101929;-78
2023/10/18 10:35:15;;;;;;;;;16.00;13.75;;;;;-143.90;58.59;75281.78;4978966;28;101645;-78
2023/10/18 10:37:49;;;;;;;;;13.25;12.50;;;;;-143.90;61.03;75267.31;4979367;28;101727;-78
2023/10/18 10:43:13;;;;;;;;;16.75;14.75;;;;;-143.90;56.43;75273.53;4979255;28;101685;-78
2023/10/18 10:48:16;;;;;;;;;10.50;10.00;;;;;-143.90;56.81;75213.56;4975401;28;102353;-76
2023/10/18 10:50:53;;;;;;;;;18.25;11.75;;;;;-143.90;54.90;75205.28;4974009;28;104086;-74
2023/10/18 10:53:48;;;;;;;;;14.75;12.50;;;;;-143.90;53.78;75199.09;4975762;28;101871;-77
2023/10/18 10:56:18;;;;;;;;;11.50;10.25;;;;;-143.90;54.84;75213.56;4974242;28;101466;-77
2023/10/18 10:58:54;;;;;;;;;14.25;10.50;;;;;-143.90;52.75;75213.56;4975987;28;102304;-78
2023/10/18 11:01:39;;;;;;;;;18.50;14.00;;;;;-143.90;54.61;75242.50;4984570;28;103353;-78
2023/10/18 11:04:27;;;;;;;;;20.50;13.75;;;;;-143.90;54.17;75221.84;4976412;28;101793;-77
2023/10/18 11:06:57;;;;;;;;;11.75;11.00;;;;;-143.90;53.86;75194.97;4978542;28;101727;-78
2023/10/18 11:09:32;;;;;;;;;11.00;11.00;;;;;-143.90;53.53;75186.69;4969186;28;103140;-77
2023/10/18 11:12:18;;;;;;;;;6.50;4.25;;;;;-143.90;55.90;75155.69;4977295;28;103349;-78
2023/10/18 11:14:50;;;;;;;;;12.50;10.00;;;;;-143.90;53.02;75143.28;4974713;28;101655;-77
2023/10/18 11:19:45;;;;;;;;;14.75;12.00;;;;;-143.90;52.02;75153.63;4971025;28;102972;-78
2023/10/18 11:22:13;;;;;;;;;9.00;9.00;;;;;-143.90;51.65;75130.88;4980278;28;103432;-78
2023/10/18 11:24:41;;;;;;;;;14.00;11.50;;;;;-143.90;51.45;75147.41;4976389;28;101470;-77
2023/10/18 11:27:11;;;;;;;;;12.00;11.25;;;;;-143.90;52.48;75137.06;4973824;28;101831;-77
2023/10/18 11:29:41;;;;;;;;;15.25;12.25;;;;;-143.90;50.55;75159.81;4982142;28;101809;-78
2023/10/18 11:32:15;;;;;;;;;16.25;12.50;;;;;-143.90;52.81;75147.41;4969269;28;107318;-79
2023/10/18 11:34:43;;;;;;;;;12.75;11.00;;;;;-143.90;51.41;75122.59;4977121;28;106947;-74
2023/10/18 11:37:14;;;;;;;;;6.00;4.00;;;;;-143.90;51.69;75114.34;4971889;28;101687;-77
2023/10/18 11:39:40;;;;;;;;;15.75;12.50;;;;;-143.90;50.26;75126.75;4958703;28;102454;-77
2023/10/18 11:42:10;;;;;;;;;10.00;8.50;;;;;-143.90;52.60;75114.34;4959263;28;105866;-78
2023/10/18 11:44:39;;;;;;;;;10.50;9.50;;;;;-143.90;52.05;75099.88;4975480;28;101640;-79
2023/10/18 11:47:19;;;;;;;;;11.75;11.75;;;;;-143.90;50.46;75097.78;4975965;28;101538;-78
2023/10/18 11:49:53;;;;;;;;;15.50;12.75;;;;;-143.90;51.42;75108.13;4974433;28;101885;-77
2023/10/18 11:52:25;;;;;;;;;14.75;12.00;;;;;-143.90;51.92;75097.78;4979445;28;103394;-78
2023/10/18 11:55:09;;;;;;;;;12.00;11.25;;;;;-143.90;50.24;75085.38;4971064;28;101856;-78
2023/10/18 11:57:39;;;;;;;;;15.25;12.00;;;;;-143.90;49.18;75097.78;4977644;28;101761;-78
2023/10/18 12:00:35;;;;;;;;;16.75;16.00;;;;;-143.90;50.07;75089.53;4974839;28;101864;-77
2023/10/18 12:03:04;;;;;;;;;13.25;11.25;;;;;-143.90;50.66;75068.84;4977323;28;108125;-77
2023/10/18 12:05:32;;;;;;;;;12.00;10.75;;;;;-143.90;51.36;75056.44;4973069;28;101826;-77
2023/10/18 12:08:05;;;;;;;;;15.75;13.50;;;;;-143.90;50.14;75056.44;4974605;28;101723;-78
2023/10/18 12:10:35;;;;;;;;;16.75;16.00;;;;;-143.90;50.80;75068.84;4975343;28;101898;-76
2023/10/18 12:13:16;;;;;;;;;10.00;9.00;;;;;-143.90;51.43;75035.78;4976064;28;103337;-78
2023/10/18 12:15:43;;;;;;;;;10.00;9.50;;;;;-143.90;50.38;75023.38;4973268;28;101406;-75
2023/10/18 12:18:10;;;;;;;;;6.25;5.50;;;;;-143.90;49.23;74998.56;4974796;28;101490;-77
2023/10/18 12:20:37;;;;;;;;;7.00;5.75;;;;;-143.90;48.43;74994.44;4978667;28;101977;-78
2023/10/18 12:23:18;;;;;;;;;5.75;5.75;;;;;-143.90;47.27;74982.03;4974892;28;103531;-77
2023/10/18 12:25:46;;;;;;;;;8.50;8.00;;;;;-143.90;47.24;74986.16;4977832;28;101883;-77
2023/10/18 12:28:27;;;;;;;;;6.75;5.50;;;;;-143.90;47.88;74973.75;4969292;28;103064;-78
2023/10/18 12:31:00;;;;;;;;;7.00;6.00;;;;;-143.90;46.55;74961.34;4978662;28;101760;-78
2023/10/18 12:33:28;;;;;;;;;7.25;5.75;;;;;-143.90;47.62;74944.81;4968373;28;103412;-78
2023/10/18 12:35:59;;;;;;;;;5.75;5.00;;;;;-143.90;47.10;74924.13;4980102;28;101927;-77
2023/10/18 12:38:34;;;;;;;;;4.75;4.00;;;;;-143.90;47.29;74913.81;4972736;28;101818;-78
2023/10/18 12:41:18;;;;;;;;;5.50;5.50;;;;;-143.90;45.79;74913.81;4981389;28;102130;-77
2023/10/18 12:43:45;;;;;;;;;4.00;3.25;;;;;-143.90;46.07;74903.47;4976084;28;107917;-79
2023/10/18 12:46:21;;;;;;;;;5.00;4.75;;;;;-143.90;45.76;74893.13;4975441;28;101957;-76
2023/10/18 12:48:52;;;;;;;;;2.25;2.00;;;;;-143.90;45.79;74880.72;4972635;28;101658;-76
2023/10/18 12:51:20;;;;;;;;;2.00;2.00;;;;;-143.90;46.99;74878.66;4975936;28;101993;-76
2023/10/18 12:53:56;;;;;;;;;4.00;3.00;;;;;-143.90;47.72;74880.72;4977336;28;103470;-77
2023/10/18 12:59:11;;;;;;;;;5.00;4.00;;;;;-143.90;45.67;74882.78;4979699;28;101513;-78
2023/10/18 13:04:17;;;;;;;;;5.00;5.00;;;;;-143.90;45.67;74907.59;4978218;28;103437;-78
2023/10/18 13:06:44;;;;;;;;;6.50;6.50;;;;;-143.90;44.01;74891.06;4970974;28;102663;-78
2023/10/18 13:09:15;;;;;;;;;5.75;4.50;;;;;-143.90;43.78;74876.59;4975675;28;101755;-77
2023/10/18 13:14:14;;;;;;;;;4.00;4.00;;;;;-143.90;45.12;74866.25;4980122;28;103810;-77
2023/10/18 13:16:44;;;;;;;;;3.00;3.00;;;;;-143.90;44.91;74858.00;4971084;28;101636;-78
2023/10/18 13:19:14;;;;;;;;;5.00;4.75;;;;;-143.90;44.75;74858.00;4978099;28;101562;-78
2023/10/18 13:21:43;;;;;;;;;5.75;4.75;;;;;-143.90;44.76;74876.59;4978990;28;101697;-77
2023/10/18 13:26:54;;;;;;;;;6.75;5.00;;;;;-143.90;44.82;74864.19;4973142;28;101653;-76
2023/10/18 13:31:50;;;;;;;;;5.50;4.75;;;;;-143.90;44.37;74870.38;4979797;28;101874;-77
2023/10/18 13:34:18;;;;;;;;;3.50;3.50;;;;;-143.90;45.25;74862.13;4971850;28;108095;-77
2023/10/18 13:36:50;;;;;;;;;5.50;5.50;;;;;-143.90;44.64;74870.38;4979043;28;101491;-79
2023/10/18 13:39:17;;;;;;;;;7.25;6.75;;;;;-143.90;45.45;74874.53;4975411;28;101964;-77
2023/10/18 13:41:49;;;;;;;;;6.00;6.00;;;;;-143.90;45.40;74858.00;4958081;28;102605;-78
2023/10/18 13:44:20;;;;;;;;;5.25;5.00;;;;;-143.90;45.14;74858.00;4949964;28;108139;-78
2023/10/18 13:46:50;;;;;;;;;10.00;6.75;;;;;-143.90;44.09;74868.31;4977879;28;104371;-78
2023/10/18 13:49:34;;;;;;;;;5.00;4.25;;;;;-143.90;46.95;74851.78;4956006;28;101620;-76
2023/10/18 13:52:00;;;;;;;;;4.75;3.00;;;;;-143.90;46.53;74849.72;4972549;28;102160;-77
2023/10/18 13:54:28;;;;;;;;;2.75;2.00;;;;;-143.90;46.42;74851.78;4973042;28;103393;-77
2023/10/18 13:56:55;;;;;;;;;5.50;4.00;;;;;-143.90;44.65;74860.06;4974022;28;101690;-77
2023/10/18 13:59:22;;;;;;;;;2.00;2.00;;;;;-143.90;46.80;74858.00;4974917;28;101713;-76
2023/10/18 14:01:54;;;;;;;;;5.50;3.50;;;;;-143.90;48.42;74853.84;4972269;28;101992;-76
2023/10/18 14:04:28;;;;;;;;;2.25;2.00;;;;;-143.90;45.89;74858.00;4972220;28;103539;-77
2023/10/18 14:06:57;;;;;;;;;3.00;2.75;;;;;-143.90;46.10;74870.38;4970336;28;101613;-77
2023/10/18 14:09:25;;;;;;;;;4.00;4.00;;;;;-143.90;45.87;74858.00;4981193;28;101827;-78
2023/10/18 14:11:52;;;;;;;;;5.00;4.25;;;;;-143.90;46.76;74853.84;4960185;28;101689;-78
2023/10/18 14:14:19;;;;;;;;;2.00;2.00;;;;;-143.90;46.21;74853.84;4977586;28;103552;-77
2023/10/18 14:16:46;;;;;;;;;1.50;1.50;;;;;-143.90;46.40;74855.91;4978268;28;101488;-77
2023/10/18 14:19:18;;;;;;;;;5.00;4.00;;;;;-143.90;47.02;74860.06;4980550;28;101999;-77
2023/10/18 14:21:48;;;;;;;;;4.75;4.75;;;;;-143.90;48.57;74858.00;4982834;28;102131;-77
2023/10/18 14:24:17;;;;;;;;;2.75;2.75;;;;;-143.90;47.22;74864.19;4980176;28;108003;-76
2023/10/18 14:26:44;;;;;;;;;2.00;2.00;;;;;-143.90;46.91;74872.47;4976055;28;101939;-77
2023/10/18 14:29:11;;;;;;;;;3.00;1.25;;;;;-143.90;48.21;74880.72;4968827;28;102013;-77
2023/10/18 14:31:39;;;;;;;;;3.00;2.00;;;;;-143.90;47.77;74886.94;4982297;28;101767;-76
2023/10/18 14:34:07;;;;;;;;;1.00;1.00;;;;;-143.90;48.21;74897.25;4972033;28;103360;-78
2023/10/18 14:36:34;;;;;;;;;2.25;2.25;;;;;-143.90;48.71;74915.88;4971101;28;101985;-79
2023/10/18 14:39:03;;;;;;;;;4.25;3.00;;;;;-143.90;49.23;74922.06;4968127;28;101570;-78
2023/10/18 14:41:30;;;;;;;;;2.75;2.25;;;;;-143.90;49.85;74946.88;4972840;28;101649;-78
2023/10/18 14:43:59;;;;;;;;;3.00;3.00;;;;;-143.90;50.49;74948.94;4976917;28;103589;-78
2023/10/18 14:46:29;;;;;;;;;2.25;2.25;;;;;-143.90;51.62;74963.41;4972582;28;101829;-78
2023/10/18 14:48:58;;;;;;;;;2.00;2.00;;;;;-143.90;53.73;74967.56;4974174;28;101852;-78
2023/10/18 14:51:27;;;;;;;;;4.25;3.50;;;;;-143.90;53.28;74984.09;4975933;28;101890;-78
2023/10/18 14:53:54;;;;;;;;;6.50;5.00;;;;;-143.90;50.31;74994.44;4975498;28;103636;-77
2023/10/18 14:56:22;;;;;;;;;6.50;5.00;;;;;-143.90;54.11;75031.63;4968847;28;101873;-77
2023/10/18 14:58:54;;;;;;;;;9.25;8.00;;;;;-143.90;52.41;75060.59;4972512;28;101769;-78
2023/10/18 15:01:22;;;;;;;;;6.00;5.75;;;;;-143.90;54.33;75052.31;4971223;28;101868;-77
2023/10/18 15:03:49;;;;;;;;;9.00;9.00;;;;;-143.90;54.78;75072.97;4974602;28;103423;-76
2023/10/18 15:06:17;;;;;;;;;10.75;10.00;;;;;-143.90;54.73;75081.25;4978339;28;101769;-79
2023/10/18 15:08:53;;;;;;;;;16.25;12.00;;;;;-143.90;55.96;75079.19;4947601;28;101598;-78
2023/10/18 15:11:19;;;;;;;;;16.25;11.00;;;;;-143.90;59.12;75087.47;4975998;28;101966;-75
2023/10/18 15:13:47;;;;;;;;;15.75;14.00;;;;;-143.90;57.28;75104.00;4972536;28;103456;-79
2023/10/18 15:16:16;;;;;;;;;15.25;13.50;;;;;-143.90;58.30;75099.88;4958952;28;101888;-79
2023/10/18 15:18:46;;;;;;;;;16.75;13.00;;;;;-143.90;59.23;75104.00;4970457;28;101521;-78
2023/10/18 15:21:15;;;;;;;;;8.75;7.50;;;;;-143.90;60.55;75120.53;4975837;28;101967;-77
2023/10/18 15:23:45;;;;;;;;;12.00;11.00;;;;;-143.90;64.36;75145.34;4970983;28;103468;-79
2023/10/18 15:26:19;;;;;;;;;17.00;15.50;;;;;-143.90;69.62;75209.44;4976964;28;102069;-79
2023/10/18 15:28:48;;;;;;;;;21.25;19.00;;;;;-143.90;75.21;75252.84;4976407;28;101893;-78
2023/10/18 15:31:17;;;;;;;;;28.25;25.25;;;;;-143.90;77.80;75259.06;4981672;28;101539;-80
2023/10/18 15:33:44;;;;;;;;;27.25;23.50;;;;;-143.90;77.16;75261.13;4977790;28;111000;-79
2023/10/18 15:36:17;;;;;;;;;15.50;15.50;;;;;-143.90;78.38;75273.53;4972374;28;103298;-80
2023/10/18 15:38:48;;;;;;;;;28.50;25.00;;;;;-143.90;79.55;75300.41;4968921;28;101911;-79
2023/10/18 15:41:19;;;;;;;;;22.25;19.25;;;;;-143.90;78.13;75306.59;4973263;28;101885;-81
2023/10/18 15:43:57;;;;;;;;;17.25;15.25;;;;;-143.90;78.56;75312.81;4974443;28;108146;-79
2023/10/18 15:46:29;;;;;;;;;21.25;14.25;;;;;-143.90;78.08;75319.00;4971289;28;102073;-79
2023/10/18 15:48:59;;;;;;;;;9.50;8.25;;;;;-143.90;80.81;75345.88;4978899;28;101865;-78
2023/10/18 15:51:28;;;;;;;;;25.00;23.50;;;;;-143.90;81.55;75378.97;4971993;28;101764;-78
2023/10/18 15:53:56;;;;;;;;;31.50;25.00;;;;;-143.90;84.16;75393.44;4970214;28;103706;-79
2023/10/18 15:56:26;;;;;;;;;38.75;29.25;;;;;-143.90;87.39;75432.72;4974681;28;101754;-80
2023/10/18 15:58:54;;;;;;;;;43.25;36.50;;;;;-143.90;90.02;75463.72;4975899;28;102035;-80
2023/10/18 16:01:22;;;;;;;;;36.25;34.25;;;;;-143.90;91.30;75478.22;4971039;28;102134;-80
2023/10/18 16:03:49;;;;;;;;;40.00;32.50;;;;;-143.90;91.33;75482.34;4969566;28;103371;-77
2023/10/18 16:06:17;;;;;;;;;41.50;35.00;;;;;-143.90;93.08;75498.88;4975246;28;101616;-78
2023/10/18 16:08:48;;;;;;;;;43.75;36.00;;;;;-143.90;90.22;75509.22;4976281;28;101905;-78
2023/10/18 16:11:16;;;;;;;;;41.00;37.50;;;;;-143.90;91.77;75523.69;4974868;28;101726;-78
2023/10/18 16:13:43;;;;;;;;;54.50;42.75;;;;;-143.90;91.01;75523.69;4972895;28;104649;-78
2023/10/18 16:16:11;;;;;;;;;48.25;41.25;;;;;-143.90;89.87;75521.63;4971821;28;101942;-77
2023/10/18 16:18:40;;;;;;;;;47.00;36.25;;;;;-143.90;91.02;75519.56;4967534;28;101805;-78
2023/10/18 16:21:12;;;;;;;;;86.25;67.50;;;;;-143.90;92.10;75552.63;4975755;28;101621;-79
2023/10/18 16:23:41;;;;;;;;;103.50;89.50;;;;;-143.90;90.62;75569.19;4974716;28;103496;-77
2023/10/18 16:26:10;;;;;;;;;97.25;80.25;;;;;-143.90;91.82;75579.53;4973822;28;101888;-77